createdAt,value
2017-11-24T00:00:31.762Z,2.97
2017-11-24T00:03:00.093Z,3.40
2017-11-24T00:05:28.380Z,3.13
2017-11-24T00:07:56.726Z,3.30
2017-11-24T00:10:25.014Z,2.73
2017-11-24T00:12:53.330Z,3.13
2017-11-24T00:15:21.608Z,3.13
2017-11-24T00:17:49.903Z,3.30
2017-11-24T00:20:18.219Z,2.53
2017-11-24T00:22:46.499Z,2.53
2017-11-24T00:25:14.789Z,2.03
2017-11-24T00:27:43.073Z,2.77
2017-11-24T00:30:11.415Z,3.00
2017-11-24T00:32:39.744Z,1.87
2017-11-24T00:35:08.081Z,2.80
2017-11-24T00:37:37.233Z,2.40
2017-11-24T00:40:05.577Z,3.00
2017-11-24T00:42:33.890Z,2.33
2017-11-24T00:45:02.171Z,2.73
2017-11-24T00:47:31.254Z,2.37
2017-11-24T00:49:59.577Z,2.70
2017-11-24T00:52:28.163Z,1.90
2017-11-24T00:54:57.235Z,2.13
2017-11-24T00:57:26.438Z,1.83
2017-11-24T00:59:54.733Z,2.33
2017-11-24T01:02:23.040Z,1.90
2017-11-24T01:04:52.144Z,2.80
2017-11-24T01:07:20.425Z,2.27
2017-11-24T01:09:48.934Z,2.37
2017-11-24T01:12:17.977Z,2.17
2017-11-24T01:14:46.337Z,1.60
2017-11-24T01:17:15.392Z,1.80
2017-11-24T01:19:43.689Z,1.73
2017-11-24T01:22:11.981Z,2.40
2017-11-24T01:24:40.289Z,1.67
2017-11-24T01:27:08.644Z,1.70
2017-11-24T01:29:36.952Z,1.90
2017-11-24T01:32:05.259Z,2.13
2017-11-24T01:34:33.635Z,1.77
2017-11-24T01:37:01.923Z,2.00
2017-11-24T01:39:30.346Z,2.30
2017-11-24T01:41:58.658Z,2.47
2017-11-24T01:44:26.944Z,2.30
2017-11-24T01:46:55.236Z,1.93
2017-11-24T01:49:23.538Z,2.30
2017-11-24T01:51:51.920Z,2.20
2017-11-24T01:54:20.252Z,2.50
2017-11-24T01:56:48.534Z,2.67
2017-11-24T01:59:16.834Z,2.40
2017-11-24T02:01:45.924Z,1.83
2017-11-24T02:04:14.256Z,1.50
2017-11-24T02:06:43.310Z,2.00
2017-11-24T02:09:11.629Z,1.60
2017-11-24T02:11:39.928Z,1.73
2017-11-24T02:14:08.249Z,1.40
2017-11-24T02:16:36.604Z,1.60
2017-11-24T02:19:06.134Z,1.73
2017-11-24T02:21:35.280Z,1.27
2017-11-24T02:24:03.661Z,1.97
2017-11-24T02:26:31.993Z,1.80
2017-11-24T02:29:01.175Z,1.33
2017-11-24T02:31:29.521Z,1.90
2017-11-24T02:33:58.809Z,2.20
2017-11-24T02:36:27.112Z,2.27
2017-11-24T02:38:55.404Z,2.40
2017-11-24T02:41:23.740Z,2.77
2017-11-24T02:43:52.031Z,2.80
2017-11-24T02:46:20.332Z,2.60
2017-11-24T02:48:48.612Z,1.93
2017-11-24T02:51:16.896Z,2.30
2017-11-24T02:53:45.239Z,2.87
2017-11-24T02:56:14.297Z,2.00
2017-11-24T02:58:42.621Z,2.27
2017-11-24T03:01:10.943Z,3.00
2017-11-24T03:03:39.323Z,3.10
2017-11-24T03:06:08.457Z,2.87
2017-11-24T03:08:36.808Z,2.93
2017-11-24T03:11:05.258Z,3.80
2017-11-24T03:13:33.638Z,4.27
2017-11-24T03:16:01.965Z,4.47
2017-11-24T03:18:30.252Z,4.07
2017-11-24T03:20:58.540Z,4.20
2017-11-24T03:23:26.847Z,4.70
2017-11-24T03:25:55.136Z,4.10
2017-11-24T03:28:23.509Z,5.03
2017-11-24T03:30:51.829Z,4.30
2017-11-24T03:33:20.882Z,3.97
2017-11-24T03:35:49.178Z,3.83
2017-11-24T03:38:17.456Z,3.30
2017-11-24T03:40:45.744Z,3.07
2017-11-24T03:43:14.097Z,3.37
2017-11-24T03:45:43.180Z,3.50
2017-11-24T03:48:11.477Z,4.00
2017-11-24T03:50:39.809Z,3.57
2017-11-24T03:53:08.105Z,3.70
2017-11-24T03:55:36.439Z,3.80
2017-11-24T03:58:04.781Z,3.97
2017-11-24T04:00:33.068Z,4.23
2017-11-24T04:03:01.378Z,4.00
2017-11-24T04:05:29.723Z,4.70
2017-11-24T04:07:58.063Z,5.37
2017-11-24T04:10:26.376Z,6.20
2017-11-24T04:12:55.435Z,6.17
2017-11-24T04:15:23.712Z,4.37
2017-11-24T04:17:52.032Z,5.40
2017-11-24T04:20:20.324Z,5.90
2017-11-24T04:22:48.618Z,6.00
2017-11-24T04:25:16.956Z,5.33
2017-11-24T04:27:46.015Z,6.73
2017-11-24T04:30:14.329Z,5.40
2017-11-24T04:32:42.611Z,5.70
2017-11-24T04:35:11.019Z,6.27
2017-11-24T04:37:40.086Z,5.27
2017-11-24T04:40:09.423Z,5.90
2017-11-24T04:42:37.778Z,6.90
2017-11-24T04:45:06.077Z,5.00
2017-11-24T04:47:34.508Z,6.13
2017-11-24T04:50:03.563Z,5.73
2017-11-24T04:52:31.929Z,5.50
2017-11-24T04:55:00.244Z,4.73
2017-11-24T04:57:28.529Z,4.27
2017-11-24T04:59:56.922Z,5.00
2017-11-24T05:02:25.239Z,4.10
2017-11-24T05:04:53.565Z,4.27
2017-11-24T05:07:21.851Z,4.00
2017-11-24T05:09:50.915Z,4.87
2017-11-24T05:12:19.268Z,5.40
2017-11-24T05:14:47.573Z,5.20
2017-11-24T05:17:15.872Z,5.87
2017-11-24T05:19:44.198Z,5.37
2017-11-24T05:22:12.503Z,4.50
2017-11-24T05:24:41.725Z,5.10
2017-11-24T05:27:10.018Z,4.90
2017-11-24T05:29:39.150Z,4.80
2017-11-24T05:32:07.582Z,4.30
2017-11-24T05:34:35.990Z,4.00
2017-11-24T05:37:05.155Z,3.70
2017-11-24T05:39:33.470Z,4.27
2017-11-24T05:42:01.806Z,4.00
2017-11-24T05:44:30.137Z,3.63
2017-11-24T05:46:58.487Z,3.80
2017-11-24T05:49:26.804Z,3.77
2017-11-24T05:51:55.083Z,3.80
2017-11-24T05:54:23.411Z,4.57
2017-11-24T05:56:52.085Z,3.80
2017-11-24T05:59:20.378Z,3.97
2017-11-24T06:01:48.660Z,4.80
2017-11-24T06:04:16.941Z,4.17
2017-11-24T06:06:45.327Z,4.23
2017-11-24T06:09:13.618Z,3.40
2017-11-24T06:11:41.934Z,4.30
2017-11-24T06:14:10.272Z,4.70
2017-11-24T06:16:38.666Z,3.60
2017-11-24T06:19:07.081Z,3.57
2017-11-24T06:21:36.381Z,3.93
2017-11-24T06:24:04.759Z,3.70
2017-11-24T06:26:33.064Z,3.50
2017-11-24T06:29:01.352Z,3.47
2017-11-24T06:31:29.671Z,3.90
2017-11-24T06:33:57.984Z,3.97
2017-11-24T06:36:26.289Z,3.73
2017-11-24T06:38:54.612Z,4.60
2017-11-24T06:41:22.902Z,4.20
2017-11-24T06:43:51.213Z,4.23
2017-11-24T06:46:19.538Z,3.90
2017-11-24T06:48:48.584Z,3.83
2017-11-24T06:51:16.872Z,5.33
2017-11-24T06:53:45.188Z,3.20
2017-11-24T06:56:13.584Z,3.80
2017-11-24T06:58:41.959Z,3.23
2017-11-24T07:01:10.378Z,3.87
2017-11-24T07:03:38.799Z,3.47
2017-11-24T07:06:07.994Z,3.73
2017-11-24T07:08:37.215Z,3.47
2017-11-24T07:11:05.731Z,4.10
2017-11-24T07:13:34.093Z,3.53
2017-11-24T07:16:02.435Z,3.33
2017-11-24T07:18:30.722Z,3.30
2017-11-24T07:20:59.032Z,3.97
2017-11-24T07:23:27.348Z,4.43
2017-11-24T07:25:56.420Z,3.87
2017-11-24T07:28:24.710Z,3.40
2017-11-24T07:30:53.017Z,3.80
2017-11-24T07:33:21.381Z,3.80
2017-11-24T07:35:49.672Z,3.17
2017-11-24T07:38:18.728Z,4.23
2017-11-24T07:40:47.788Z,4.40
2017-11-24T07:43:16.076Z,4.47
2017-11-24T07:45:44.426Z,3.67
2017-11-24T07:48:12.760Z,3.83
2017-11-24T07:50:41.062Z,4.17
2017-11-24T07:53:09.574Z,4.17
2017-11-24T07:55:38.697Z,4.77
2017-11-24T07:58:07.435Z,4.27
2017-11-24T08:00:35.794Z,4.80
2017-11-24T08:03:04.183Z,5.40
2017-11-24T08:05:32.468Z,2.87
2017-11-24T08:08:00.760Z,5.30
2017-11-24T08:10:29.097Z,6.20
2017-11-24T08:12:57.414Z,4.90
2017-11-24T08:15:26.472Z,1.70
2017-11-24T08:17:54.766Z,2.50
2017-11-24T08:20:23.056Z,2.70
2017-11-24T08:22:51.411Z,2.77
2017-11-24T08:25:19.694Z,3.70
2017-11-24T08:27:48.774Z,1.97
2017-11-24T08:30:17.062Z,1.60
2017-11-24T08:32:45.342Z,1.80
2017-11-24T08:35:13.654Z,1.90
2017-11-24T08:37:41.976Z,2.33
2017-11-24T08:40:10.283Z,1.97
2017-11-24T08:42:38.825Z,2.20
2017-11-24T08:45:07.985Z,2.60
2017-11-24T08:47:42.047Z,2.00
2017-11-24T08:50:10.376Z,2.37
2017-11-24T08:52:38.807Z,4.30
2017-11-24T08:55:07.168Z,8.17
2017-11-24T08:57:35.573Z,7.50
2017-11-24T09:00:03.925Z,7.73
2017-11-24T09:02:33.109Z,7.87
2017-11-24T09:05:01.561Z,4.23
2017-11-24T09:07:29.933Z,0.80
2017-11-24T09:09:58.251Z,0.60
2017-11-24T09:12:26.537Z,0.50
2017-11-24T09:14:54.892Z,0.50
2017-11-24T09:17:23.255Z,0.50
2017-11-24T09:19:51.538Z,5.50
2017-11-24T09:22:19.826Z,0.60
2017-11-24T09:24:48.120Z,0.50
2017-11-24T09:27:16.433Z,0.60
2017-11-24T09:29:45.536Z,0.60
2017-11-24T09:32:14.615Z,0.70
2017-11-24T09:34:42.964Z,0.60
2017-11-24T09:37:11.384Z,0.73
2017-11-24T09:39:39.810Z,0.90
2017-11-24T09:42:08.958Z,1.03
2017-11-24T09:44:37.303Z,0.60
2017-11-24T09:47:05.663Z,0.50
2017-11-24T09:49:33.944Z,0.57
2017-11-24T09:52:02.270Z,0.60
2017-11-24T09:54:30.580Z,0.50
2017-11-24T09:56:58.872Z,0.60
2017-11-24T09:59:27.177Z,0.50
2017-11-24T10:01:55.487Z,0.67
2017-11-24T10:04:23.775Z,1.53
2017-11-24T10:06:52.098Z,0.70
2017-11-24T10:09:20.393Z,0.50
2017-11-24T10:11:48.702Z,0.50
2017-11-24T10:14:17.761Z,0.80
2017-11-24T10:16:46.091Z,1.50
2017-11-24T10:19:15.184Z,1.10
2017-11-24T10:21:49.040Z,0.70
2017-11-24T10:24:17.356Z,0.60
2017-11-24T10:26:45.725Z,1.50
2017-11-24T10:29:14.010Z,0.80
2017-11-24T10:31:42.346Z,0.80
2017-11-24T10:34:11.456Z,1.20
2017-11-24T10:36:39.804Z,0.80
2017-11-24T10:39:08.129Z,0.63
2017-11-24T10:41:36.521Z,0.83
2017-11-24T10:44:04.865Z,1.20
2017-11-24T10:46:33.162Z,1.63
2017-11-24T10:49:01.541Z,2.33
2017-11-24T10:51:29.842Z,2.90
2017-11-24T10:53:58.170Z,0.93
2017-11-24T10:56:26.477Z,0.90
2017-11-24T10:58:54.750Z,0.50
2017-11-24T11:01:23.028Z,0.50
2017-11-24T11:03:51.316Z,0.60
2017-11-24T11:06:19.673Z,0.80
2017-11-24T11:08:47.968Z,0.40
2017-11-24T11:11:16.270Z,1.27
2017-11-24T11:13:44.557Z,1.03
2017-11-24T11:16:12.995Z,0.60
2017-11-24T11:18:41.352Z,0.60
2017-11-24T11:21:09.680Z,0.90
2017-11-24T11:23:38.792Z,2.03
2017-11-24T11:26:07.908Z,2.83
2017-11-24T11:28:36.332Z,2.30
2017-11-24T11:31:04.649Z,0.60
2017-11-24T11:33:32.941Z,0.70
2017-11-24T11:36:01.225Z,0.70
2017-11-24T11:38:29.529Z,0.77
2017-11-24T11:40:57.845Z,0.60
2017-11-24T11:43:26.952Z,0.50
2017-11-24T11:45:55.264Z,0.87
2017-11-24T11:48:23.554Z,0.70
2017-11-24T11:50:51.840Z,0.80
2017-11-24T11:53:20.170Z,1.30
2017-11-24T11:55:48.481Z,0.73
2017-11-24T11:58:17.540Z,4.33
2017-11-24T12:00:45.885Z,1.67
2017-11-24T12:03:14.980Z,1.53
2017-11-24T12:05:44.081Z,0.70
2017-11-24T12:08:12.357Z,0.80
2017-11-24T12:10:40.675Z,1.17
2017-11-24T12:13:09.779Z,0.97
2017-11-24T12:15:38.897Z,0.60
2017-11-24T12:18:07.993Z,1.00
2017-11-24T12:20:37.078Z,0.83
2017-11-24T12:23:05.394Z,0.90
2017-11-24T12:25:34.516Z,1.30
2017-11-24T12:28:02.839Z,1.10
2017-11-24T12:30:31.252Z,2.80
2017-11-24T12:32:59.544Z,1.73
2017-11-24T12:35:27.833Z,1.90
2017-11-24T12:37:56.170Z,1.57
2017-11-24T12:40:24.467Z,1.90
2017-11-24T12:42:52.790Z,2.03
2017-11-24T12:45:21.077Z,2.00
2017-11-24T12:47:49.366Z,1.63
2017-11-24T12:50:17.664Z,1.73
2017-11-24T12:52:45.942Z,1.20
2017-11-24T12:55:14.249Z,1.27
2017-11-24T12:57:42.533Z,1.30
2017-11-24T13:00:10.821Z,1.57
2017-11-24T13:02:39.148Z,2.10
2017-11-24T13:05:07.462Z,3.13
2017-11-24T13:07:36.714Z,3.27
2017-11-24T13:10:05.029Z,3.93
2017-11-24T13:12:33.346Z,3.90
2017-11-24T13:15:01.903Z,3.00
2017-11-24T13:17:30.962Z,2.70
2017-11-24T13:19:59.245Z,3.17
2017-11-24T13:22:27.561Z,3.50
2017-11-24T13:24:55.861Z,2.97
2017-11-24T13:27:24.161Z,3.80
2017-11-24T13:29:52.491Z,5.10
2017-11-24T13:32:20.789Z,5.67
2017-11-24T13:34:49.102Z,4.87
2017-11-24T13:37:17.398Z,7.17
2017-11-24T13:39:45.688Z,6.17
2017-11-24T13:42:14.006Z,6.50
2017-11-24T13:44:42.300Z,8.10
2017-11-24T13:47:11.369Z,7.53
2017-11-24T13:49:39.691Z,7.10
2017-11-24T13:52:08.769Z,7.77
2017-11-24T13:54:37.132Z,7.57
2017-11-24T13:57:05.587Z,6.80
2017-11-24T13:59:33.894Z,8.00
2017-11-24T14:02:02.212Z,6.83
2017-11-24T14:04:30.508Z,7.33
2017-11-24T14:06:58.800Z,7.83
2017-11-24T14:09:27.123Z,8.30
2017-11-24T14:11:56.185Z,8.73
2017-11-24T14:14:24.481Z,8.00
2017-11-24T14:16:52.834Z,7.10
2017-11-24T14:19:21.146Z,8.77
2017-11-24T14:21:49.509Z,7.30
2017-11-24T14:24:18.581Z,7.20
2017-11-24T14:26:46.865Z,8.30
2017-11-24T14:29:15.177Z,6.90
2017-11-24T14:31:43.492Z,6.10
2017-11-24T14:34:11.777Z,6.50
2017-11-24T14:36:40.084Z,7.10
2017-11-24T14:39:08.414Z,4.70
2017-11-24T14:41:36.753Z,5.70
2017-11-24T14:44:05.100Z,6.43
2017-11-24T14:46:34.189Z,6.53
2017-11-24T14:49:02.519Z,7.17
2017-11-24T14:51:31.655Z,5.40
2017-11-24T14:54:00.298Z,5.03
2017-11-24T14:56:29.427Z,6.70
2017-11-24T14:58:58.517Z,6.60
2017-11-24T15:01:26.839Z,6.70
2017-11-24T15:03:55.140Z,7.43
2017-11-24T15:06:23.436Z,6.17
2017-11-24T15:08:51.753Z,6.80
2017-11-24T15:11:20.048Z,8.27
2017-11-24T15:13:48.344Z,6.60
2017-11-24T15:16:16.612Z,7.20
2017-11-24T15:18:44.903Z,7.70
2017-11-24T15:21:13.234Z,7.87
2017-11-24T15:23:42.307Z,6.07
2017-11-24T15:26:10.607Z,5.97
2017-11-24T15:28:38.905Z,7.30
2017-11-24T15:31:07.230Z,6.37
2017-11-24T15:33:35.589Z,6.13
2017-11-24T15:36:03.880Z,7.40
2017-11-24T15:38:32.176Z,5.53
2017-11-24T15:41:00.483Z,6.47
2017-11-24T15:43:28.788Z,6.20
2017-11-24T15:45:57.217Z,5.93
2017-11-24T15:48:25.522Z,6.10
2017-11-24T15:50:53.814Z,6.13
2017-11-24T15:53:22.116Z,6.27
2017-11-24T15:55:51.172Z,6.73
2017-11-24T15:58:19.486Z,6.33
2017-11-24T16:00:47.810Z,8.57
2017-11-24T16:03:16.871Z,7.40
2017-11-24T16:05:45.179Z,7.00
2017-11-24T16:08:13.504Z,7.07
2017-11-24T16:10:41.833Z,7.10
2017-11-24T16:13:10.163Z,7.00
2017-11-24T16:15:39.233Z,8.10
2017-11-24T16:18:07.524Z,6.33
2017-11-24T16:20:36.606Z,7.50
2017-11-24T16:23:04.951Z,8.13
2017-11-24T16:25:34.019Z,9.27
2017-11-24T16:28:02.367Z,8.13
2017-11-24T16:30:31.612Z,8.17
2017-11-24T16:32:59.921Z,8.60
2017-11-24T16:35:28.245Z,8.83
2017-11-24T16:37:57.334Z,8.50
2017-11-24T16:40:25.643Z,7.40
2017-11-24T16:42:54.990Z,8.03
2017-11-24T16:45:23.353Z,8.47
2017-11-24T16:47:51.695Z,7.50
2017-11-24T16:50:19.992Z,7.27
2017-11-24T16:52:48.279Z,9.90
2017-11-24T16:55:16.574Z,9.37
2017-11-24T16:57:44.861Z,9.83
2017-11-24T17:00:13.221Z,12.60
2017-11-24T17:02:41.575Z,11.53
2017-11-24T17:05:09.969Z,9.20
2017-11-24T17:07:38.355Z,10.00
2017-11-24T17:10:06.741Z,11.23
2017-11-24T17:12:36.683Z,7.50
2017-11-24T17:15:05.099Z,9.27
2017-11-24T17:17:33.393Z,7.73
2017-11-24T17:20:02.522Z,7.10
2017-11-24T17:22:30.808Z,7.20
2017-11-24T17:24:59.136Z,6.50
2017-11-24T17:27:28.241Z,7.77
2017-11-24T17:29:57.309Z,6.53
2017-11-24T17:32:25.610Z,7.37
2017-11-24T17:34:53.900Z,7.90
2017-11-24T17:37:22.225Z,7.07
2017-11-24T17:39:51.273Z,9.17
2017-11-24T17:42:19.561Z,7.33
2017-11-24T17:44:47.870Z,6.40
2017-11-24T17:47:16.176Z,5.90
2017-11-24T17:49:44.520Z,5.73
2017-11-24T17:52:12.835Z,6.50
2017-11-24T17:54:41.150Z,5.90
2017-11-24T17:57:09.472Z,5.67
2017-11-24T17:59:37.798Z,4.70
2017-11-24T18:02:06.164Z,4.70
2017-11-24T18:04:34.467Z,4.10
2017-11-24T18:07:02.782Z,3.87
2017-11-24T18:09:31.383Z,4.33
2017-11-24T18:11:59.712Z,3.57
2017-11-24T18:14:28.017Z,4.50
2017-11-24T18:16:56.321Z,4.77
2017-11-24T18:19:24.620Z,4.30
2017-11-24T18:21:52.910Z,5.17
2017-11-24T18:24:21.207Z,13.60
2017-11-24T18:26:49.524Z,7.00
2017-11-24T18:29:18.583Z,6.60
2017-11-24T18:31:46.864Z,6.13
2017-11-24T18:34:15.160Z,5.97
2017-11-24T18:36:43.449Z,5.57
2017-11-24T18:39:11.766Z,5.50
2017-11-24T18:41:40.056Z,5.60
2017-11-24T18:44:08.402Z,7.63
2017-11-24T18:46:36.740Z,6.17
2017-11-24T18:49:05.065Z,7.03
2017-11-24T18:51:33.405Z,7.70
2017-11-24T18:54:01.740Z,6.73
2017-11-24T18:56:30.795Z,6.77
2017-11-24T18:58:59.129Z,7.63
2017-11-24T19:01:28.192Z,7.07
2017-11-24T19:03:56.577Z,6.90
2017-11-24T19:06:24.896Z,5.77
2017-11-24T19:08:53.193Z,6.13
2017-11-24T19:11:22.245Z,5.30
2017-11-24T19:13:50.540Z,7.67
2017-11-24T19:16:18.856Z,8.00
2017-11-24T19:18:47.143Z,7.13
2017-11-24T19:21:15.429Z,7.10
2017-11-24T19:23:43.742Z,7.20
2017-11-24T19:26:12.040Z,6.83
2017-11-24T19:28:41.194Z,7.60
2017-11-24T19:31:09.496Z,7.50
2017-11-24T19:33:37.858Z,6.70
2017-11-24T19:36:06.236Z,6.20
2017-11-24T19:38:34.527Z,7.37
2017-11-24T19:41:02.857Z,5.80
2017-11-24T19:43:31.144Z,6.03
2017-11-24T19:45:59.429Z,5.20
2017-11-24T19:48:27.724Z,4.93
2017-11-24T19:50:56.016Z,4.90
2017-11-24T19:53:24.328Z,6.47
2017-11-24T19:55:53.392Z,5.03
2017-11-24T19:58:21.684Z,6.37
2017-11-24T20:00:50.005Z,6.03
2017-11-24T20:03:18.299Z,6.20
2017-11-24T20:05:46.622Z,6.13
2017-11-24T20:08:14.923Z,5.93
2017-11-24T20:10:43.213Z,5.80
2017-11-24T20:13:11.568Z,7.33
2017-11-24T20:15:39.962Z,12.53
2017-11-24T20:18:08.303Z,6.70
2017-11-24T20:20:36.620Z,6.23
2017-11-24T20:23:04.965Z,5.43
2017-11-24T20:25:33.252Z,6.50
2017-11-24T20:28:01.559Z,5.83
2017-11-24T20:30:29.893Z,7.87
2017-11-24T20:32:58.951Z,6.90
2017-11-24T20:35:27.244Z,7.97
2017-11-24T20:37:55.532Z,7.03
2017-11-24T20:40:23.828Z,9.20
2017-11-24T20:42:52.118Z,7.43
2017-11-24T20:45:20.423Z,6.00
2017-11-24T20:47:49.502Z,6.80
2017-11-24T20:50:17.785Z,5.20
2017-11-24T20:52:46.089Z,6.13
2017-11-24T20:55:14.389Z,6.03
2017-11-24T20:57:42.678Z,6.90
2017-11-24T21:00:11.042Z,6.90
2017-11-24T21:02:45.139Z,7.53
2017-11-24T21:05:14.223Z,6.90
2017-11-24T21:07:42.567Z,6.87
2017-11-24T21:10:10.857Z,7.00
2017-11-24T21:12:39.173Z,7.80
2017-11-24T21:15:07.493Z,7.77
2017-11-24T21:17:35.816Z,6.00
2017-11-24T21:20:04.112Z,7.33
2017-11-24T21:22:32.431Z,7.40
2017-11-24T21:25:00.729Z,6.70
2017-11-24T21:27:29.139Z,6.53
2017-11-24T21:29:57.566Z,6.93
2017-11-24T21:32:25.898Z,5.73
2017-11-24T21:34:54.249Z,6.60
2017-11-24T21:37:22.555Z,6.70
2017-11-24T21:39:50.837Z,7.47
2017-11-24T21:42:19.182Z,6.77
2017-11-24T21:44:48.229Z,6.60
2017-11-24T21:47:16.539Z,7.47
2017-11-24T21:49:44.826Z,6.30
2017-11-24T21:52:13.129Z,6.30
2017-11-24T21:54:41.533Z,6.70
2017-11-24T21:57:09.837Z,7.30
2017-11-24T21:59:38.143Z,7.80
2017-11-24T22:02:06.444Z,8.03
2017-11-24T22:04:35.094Z,5.60
2017-11-24T22:07:03.437Z,6.80
2017-11-24T22:09:31.725Z,7.10
2017-11-24T22:12:00.025Z,6.10
2017-11-24T22:14:28.348Z,6.33
2017-11-24T22:16:56.652Z,6.27
2017-11-24T22:19:25.976Z,5.40
2017-11-24T22:21:54.272Z,6.90
2017-11-24T22:24:22.753Z,5.97
2017-11-24T22:26:51.093Z,5.90
2017-11-24T22:29:19.384Z,6.00
2017-11-24T22:31:47.711Z,5.80
2017-11-24T22:34:16.779Z,5.70
2017-11-24T22:36:45.056Z,5.60
2017-11-24T22:39:13.349Z,6.27
2017-11-24T22:41:41.628Z,6.00
2017-11-24T22:44:09.957Z,6.97
2017-11-24T22:46:38.280Z,6.67
2017-11-24T22:49:06.600Z,6.00
2017-11-24T22:51:34.884Z,7.60
2017-11-24T22:54:03.181Z,7.70
2017-11-24T22:56:31.524Z,7.20
2017-11-24T22:59:00.606Z,6.90
2017-11-24T23:01:28.918Z,6.80
2017-11-24T23:03:58.033Z,7.43
2017-11-24T23:06:26.332Z,7.10
2017-11-24T23:08:54.684Z,7.17
2017-11-24T23:11:22.981Z,7.17
2017-11-24T23:13:51.271Z,7.50
2017-11-24T23:16:19.563Z,7.30
2017-11-24T23:18:47.837Z,7.20
2017-11-24T23:21:16.166Z,8.00
2017-11-24T23:23:45.214Z,6.77
2017-11-24T23:26:13.534Z,7.50
2017-11-24T23:28:41.832Z,5.90
2017-11-24T23:31:10.903Z,6.57
2017-11-24T23:33:39.253Z,6.13
2017-11-24T23:36:07.582Z,7.20
2017-11-24T23:38:35.894Z,5.63
2017-11-24T23:41:04.187Z,6.60
2017-11-24T23:43:32.471Z,5.50
2017-11-24T23:46:00.789Z,6.50
2017-11-24T23:48:29.103Z,5.37
2017-11-24T23:50:57.387Z,5.47
2017-11-24T23:53:25.688Z,5.53
2017-11-24T23:55:53.995Z,6.37
2017-11-24T23:58:22.305Z,6.53
